createdAt,value
2019-02-05T00:02:02.911Z,25.30
2019-02-05T00:04:35.401Z,24.20
2019-02-05T00:07:08.589Z,26.47
2019-02-05T00:09:40.617Z,25.20
2019-02-05T00:12:13.216Z,23.77
2019-02-05T00:14:44.885Z,23.57
2019-02-05T00:17:18.103Z,25.77
2019-02-05T00:19:50.555Z,24.53
2019-02-05T00:22:22.065Z,24.97
2019-02-05T00:24:58.714Z,26.20
2019-02-05T00:27:31.418Z,24.97
2019-02-05T00:30:03.840Z,27.80
2019-02-05T00:32:35.818Z,29.33
2019-02-05T00:35:08.147Z,26.30
2019-02-05T00:37:40.944Z,25.50
2019-02-05T00:40:13.715Z,24.53
2019-02-05T00:42:45.648Z,25.37
2019-02-05T00:45:17.278Z,30.70
2019-02-05T00:47:48.402Z,24.70
2019-02-05T00:50:19.839Z,24.70
2019-02-05T00:52:53.647Z,27.70
2019-02-05T00:55:25.839Z,23.07
2019-02-05T00:57:58.476Z,25.87
2019-02-05T01:00:31.047Z,25.37
2019-02-05T01:03:04.377Z,30.00
2019-02-05T01:05:39.125Z,28.40
2019-02-05T01:08:11.060Z,28.07
2019-02-05T01:10:43.975Z,27.50
2019-02-05T01:13:15.296Z,28.07
2019-02-05T01:15:47.694Z,27.03
2019-02-05T01:18:20.299Z,29.60
2019-02-05T01:20:52.390Z,31.20
2019-02-05T01:23:24.823Z,29.50
2019-02-05T01:26:06.355Z,26.43
2019-02-05T01:28:37.441Z,27.73
2019-02-05T01:31:08.730Z,28.23
2019-02-05T01:33:40.278Z,25.27
2019-02-05T01:36:13.200Z,29.53
2019-02-05T01:38:45.281Z,31.40
2019-02-05T01:41:16.089Z,29.90
2019-02-05T01:43:47.812Z,30.90
2019-02-05T01:46:25.738Z,27.27
2019-02-05T01:48:58.138Z,31.70
2019-02-05T01:51:30.679Z,27.07
2019-02-05T01:54:02.573Z,25.27
2019-02-05T01:56:40.378Z,27.17
2019-02-05T01:59:07.435Z,28.70
2019-02-05T02:01:38.183Z,27.80
2019-02-05T02:04:09.894Z,31.23
2019-02-05T02:06:41.638Z,35.40
2019-02-05T02:09:12.626Z,30.77
2019-02-05T02:11:45.073Z,31.67
2019-02-05T02:14:15.899Z,34.90
2019-02-05T02:16:48.967Z,36.77
2019-02-05T02:19:20.476Z,29.30
2019-02-05T02:21:51.812Z,27.47
2019-02-05T02:24:23.182Z,31.57
2019-02-05T02:26:53.556Z,28.43
2019-02-05T02:29:23.904Z,30.27
2019-02-05T02:31:55.228Z,34.43
2019-02-05T02:34:27.413Z,33.10
2019-02-05T02:36:58.668Z,30.03
2019-02-05T02:39:30.715Z,37.67
2019-02-05T02:42:01.903Z,37.00
2019-02-05T02:44:32.796Z,35.37
2019-02-05T02:47:04.732Z,42.27
2019-02-05T02:49:36.473Z,35.00
2019-02-05T02:52:08.107Z,39.70
2019-02-05T02:54:39.212Z,36.07
2019-02-05T02:57:13.960Z,37.57
2019-02-05T02:59:47.186Z,35.67
2019-02-05T03:02:19.520Z,42.57
2019-02-05T03:04:51.739Z,37.60
2019-02-05T03:07:23.330Z,36.07
2019-02-05T03:09:54.100Z,42.50
2019-02-05T03:12:26.078Z,34.07
2019-02-05T03:14:56.857Z,28.97
2019-02-05T03:17:27.692Z,31.67
2019-02-05T03:19:59.114Z,30.67
2019-02-05T03:22:30.408Z,31.60
2019-02-05T03:25:00.712Z,34.23
2019-02-05T03:27:31.661Z,30.10
2019-02-05T03:30:01.863Z,30.40
2019-02-05T03:32:31.936Z,30.40
2019-02-05T03:35:01.715Z,35.23
2019-02-05T03:37:31.509Z,29.77
2019-02-05T03:40:01.142Z,34.37
2019-02-05T03:42:30.855Z,27.63
2019-02-05T03:45:00.776Z,29.20
2019-02-05T03:47:30.594Z,31.77
2019-02-05T03:50:00.494Z,33.40
2019-02-05T03:52:38.860Z,34.97
2019-02-05T03:55:48.216Z,36.07
2019-02-05T03:58:56.549Z,32.80
2019-02-05T04:02:31.095Z,31.50
2019-02-05T04:05:52.315Z,33.93
2019-02-05T04:08:40.750Z,27.13
2019-02-05T04:12:09.189Z,30.50
2019-02-05T04:15:08.578Z,28.90
2019-02-05T04:18:11.153Z,25.57
2019-02-05T04:21:18.608Z,28.17
2019-02-05T04:24:14.393Z,33.53
2019-02-05T04:27:43.628Z,27.00
2019-02-05T04:30:53.390Z,34.37
2019-02-05T04:34:00.994Z,32.37
2019-02-05T04:37:17.028Z,27.10
2019-02-05T04:40:30.923Z,27.70
2019-02-05T04:43:47.777Z,28.87
2019-02-05T04:46:55.038Z,26.40
2019-02-05T04:50:30.215Z,35.00
2019-02-05T04:53:26.530Z,34.50
2019-02-05T04:56:27.226Z,35.80
2019-02-05T04:59:36.468Z,31.37
2019-02-05T05:02:46.424Z,28.07
2019-02-05T05:05:55.656Z,38.60
2019-02-05T05:09:05.816Z,37.90
2019-02-05T05:11:36.252Z,33.40
2019-02-05T05:14:08.047Z,36.67
2019-02-05T05:16:38.887Z,39.60
2019-02-05T05:19:11.229Z,37.37
2019-02-05T05:21:43.556Z,34.40
2019-02-05T05:24:14.156Z,37.73
2019-02-05T05:26:46.440Z,37.77
2019-02-05T05:29:19.458Z,44.33
2019-02-05T05:32:08.053Z,36.00
2019-02-05T05:34:39.069Z,35.40
2019-02-05T05:37:07.381Z,29.03
2019-02-05T05:39:39.145Z,31.17
2019-02-05T05:42:10.027Z,33.90
2019-02-05T05:44:40.720Z,33.37
2019-02-05T05:47:12.411Z,38.90
2019-02-05T05:49:49.135Z,35.87
2019-02-05T05:52:19.998Z,38.90
2019-02-05T05:54:53.714Z,33.47
2019-02-05T05:57:24.971Z,28.27
2019-02-05T06:03:37.158Z,35.67
2019-02-05T06:06:34.461Z,33.93
2019-02-05T06:09:09.079Z,33.90
2019-02-05T06:11:42.777Z,31.30
2019-02-05T06:14:30.881Z,36.33
2019-02-05T06:17:01.576Z,35.17
2019-02-05T06:19:31.827Z,25.20
2019-02-05T06:22:02.696Z,30.30
2019-02-05T06:24:33.766Z,35.80
2019-02-05T06:27:16.226Z,32.73
2019-02-05T06:29:49.326Z,41.43
2019-02-05T06:32:23.916Z,33.43
2019-02-05T06:34:56.204Z,31.20
2019-02-05T06:37:35.359Z,31.40
2019-02-05T06:40:17.427Z,30.40
2019-02-05T06:42:52.723Z,28.47
2019-02-05T06:45:25.547Z,34.33
2019-02-05T06:48:01.862Z,35.33
2019-02-05T06:50:38.902Z,33.40
2019-02-05T06:53:14.827Z,42.17
2019-02-05T06:55:55.443Z,37.63
2019-02-05T06:58:45.664Z,36.57
2019-02-05T07:01:20.583Z,34.20
2019-02-05T07:03:53.275Z,35.40
2019-02-05T07:06:28.808Z,33.00
2019-02-05T07:09:09.230Z,32.07
2019-02-05T07:11:45.352Z,34.43
2019-02-05T07:14:30.957Z,31.53
2019-02-05T07:17:08.655Z,32.13
2019-02-05T07:19:45.239Z,32.23
2019-02-05T07:22:24.240Z,35.93
2019-02-05T07:25:04.289Z,33.60
2019-02-05T07:27:37.014Z,36.97
2019-02-05T07:30:18.634Z,32.00
2019-02-05T07:32:50.949Z,33.93
2019-02-05T07:35:23.025Z,31.10
2019-02-05T07:37:54.365Z,33.53
2019-02-05T07:40:26.690Z,30.87
2019-02-05T07:42:57.809Z,43.17
2019-02-05T07:45:28.572Z,33.50
2019-02-05T07:48:00.267Z,29.80
2019-02-05T07:50:31.764Z,31.70
2019-02-05T07:53:03.881Z,33.20
2019-02-05T07:55:37.342Z,31.20
2019-02-05T07:58:10.532Z,37.00
2019-02-05T08:00:45.411Z,34.13
2019-02-05T08:03:17.643Z,32.27
2019-02-05T08:05:48.717Z,30.60
2019-02-05T08:08:19.866Z,28.00
2019-02-05T08:10:50.766Z,32.63
2019-02-05T08:13:23.892Z,29.30
2019-02-05T08:15:56.709Z,26.40
2019-02-05T08:18:27.747Z,33.70
2019-02-05T08:21:00.965Z,34.47
2019-02-05T08:23:32.152Z,32.50
2019-02-05T08:26:26.372Z,33.60
2019-02-05T08:28:59.551Z,36.37
2019-02-05T08:31:48.720Z,37.80
2019-02-05T08:34:23.071Z,37.60
2019-02-05T08:37:03.435Z,27.83
2019-02-05T08:39:38.074Z,26.70
2019-02-05T08:42:23.712Z,28.70
2019-02-05T08:45:10.237Z,31.57
2019-02-05T08:47:59.570Z,28.03
2019-02-05T08:50:33.527Z,32.70
2019-02-05T08:53:11.260Z,34.80
2019-02-05T08:55:45.463Z,29.87
2019-02-05T08:58:17.517Z,24.27
2019-02-05T09:00:48.435Z,22.70
2019-02-05T09:03:19.867Z,25.37
2019-02-05T09:05:52.536Z,22.97
2019-02-05T09:08:23.205Z,23.90
2019-02-05T09:10:56.424Z,21.90
2019-02-05T09:13:28.102Z,24.57
2019-02-05T09:16:07.520Z,22.33
2019-02-05T09:18:38.823Z,19.30
2019-02-05T09:21:14.111Z,22.30
2019-02-05T09:23:46.023Z,26.30
2019-02-05T09:26:20.769Z,22.20
2019-02-05T09:28:52.553Z,30.93
2019-02-05T09:31:26.768Z,20.60
2019-02-05T09:34:05.534Z,20.30
2019-02-05T09:36:42.797Z,20.30
2019-02-05T09:39:18.596Z,24.13
2019-02-05T09:41:49.613Z,23.10
2019-02-05T09:44:21.799Z,24.87
2019-02-05T09:46:53.273Z,21.33
2019-02-05T09:49:25.107Z,23.00
2019-02-05T09:51:57.678Z,21.87
2019-02-05T09:54:34.606Z,20.50
2019-02-05T09:57:09.973Z,28.07
2019-02-05T09:59:45.848Z,18.17
2019-02-05T10:02:19.152Z,24.30
2019-02-05T10:04:51.724Z,17.83
2019-02-05T10:07:27.735Z,17.77
2019-02-05T10:10:04.714Z,20.30
2019-02-05T10:12:39.118Z,18.40
2019-02-05T10:15:21.848Z,20.50
2019-02-05T10:18:23.000Z,18.83
2019-02-05T10:21:06.051Z,19.53
2019-02-05T10:23:38.760Z,17.17
2019-02-05T10:26:10.896Z,17.27
2019-02-05T10:28:42.332Z,15.50
2019-02-05T10:31:13.466Z,17.93
2019-02-05T10:33:54.931Z,14.03
2019-02-05T10:36:21.053Z,20.97
2019-02-05T10:38:53.878Z,16.27
2019-02-05T10:41:25.279Z,12.57
2019-02-05T10:44:17.727Z,14.20
2019-02-05T10:46:50.440Z,14.77
2019-02-05T10:49:23.033Z,18.33
2019-02-05T10:52:00.229Z,14.63
2019-02-05T10:54:38.229Z,15.37
2019-02-05T10:57:37.916Z,15.00
2019-02-05T11:00:28.067Z,14.87
2019-02-05T11:02:58.700Z,12.37
2019-02-05T11:05:29.150Z,8.80
2019-02-05T11:07:58.665Z,12.43
2019-02-05T11:10:28.081Z,12.30
2019-02-05T11:13:02.583Z,14.97
2019-02-05T11:15:34.448Z,13.47
2019-02-05T11:18:06.194Z,13.43
2019-02-05T11:20:38.224Z,18.10
2019-02-05T11:23:08.532Z,10.07
2019-02-05T11:25:37.881Z,14.10
2019-02-05T11:28:07.369Z,10.50
2019-02-05T11:30:38.880Z,11.20
2019-02-05T11:33:08.324Z,11.30
2019-02-05T11:35:38.262Z,11.30
2019-02-05T11:38:09.478Z,17.10
2019-02-05T11:40:39.642Z,8.30
2019-02-05T11:43:08.933Z,7.27
2019-02-05T11:45:38.023Z,8.73
2019-02-05T11:48:10.804Z,5.83
2019-02-05T11:50:39.953Z,8.17
2019-02-05T11:53:09.279Z,8.53
2019-02-05T11:55:38.749Z,5.50
2019-02-05T11:58:07.933Z,13.10
2019-02-05T12:00:41.939Z,8.47
2019-02-05T12:03:11.188Z,8.70
2019-02-05T12:05:40.607Z,10.83
2019-02-05T12:08:09.818Z,8.23
2019-02-05T12:10:39.027Z,8.17
2019-02-05T12:13:08.249Z,8.87
2019-02-05T12:15:37.528Z,9.40
2019-02-05T12:18:06.956Z,9.83
2019-02-05T12:20:36.179Z,7.60
2019-02-05T12:23:06.078Z,6.87
2019-02-05T12:25:35.285Z,7.43
2019-02-05T12:28:04.987Z,7.67
2019-02-05T12:30:44.540Z,7.03
2019-02-05T12:33:06.887Z,9.47
2019-02-05T12:35:36.117Z,8.17
2019-02-05T12:38:06.163Z,7.07
2019-02-05T12:40:35.648Z,7.30
2019-02-05T12:43:05.384Z,11.37
2019-02-05T12:45:34.817Z,7.30
2019-02-05T12:48:04.189Z,9.40
2019-02-05T12:50:34.480Z,9.33
2019-02-05T12:53:03.916Z,7.93
2019-02-05T12:55:33.012Z,7.60
2019-02-05T12:58:02.283Z,6.30
2019-02-05T13:00:42.536Z,11.00
2019-02-05T13:03:12.325Z,10.47
2019-02-05T13:05:42.349Z,6.27
2019-02-05T13:08:11.546Z,7.63
2019-02-05T13:10:43.001Z,10.93
2019-02-05T13:13:12.151Z,8.77
2019-02-05T13:15:41.346Z,10.20
2019-02-05T13:18:10.528Z,10.37
2019-02-05T13:20:40.091Z,12.03
2019-02-05T13:23:09.856Z,13.20
2019-02-05T13:25:39.046Z,7.47
2019-02-05T13:28:10.429Z,10.33
2019-02-05T13:30:39.861Z,12.57
2019-02-05T13:33:09.277Z,11.77
2019-02-05T13:35:38.820Z,10.97
2019-02-05T13:38:08.027Z,12.77
2019-02-05T13:40:37.253Z,11.37
2019-02-05T13:43:06.774Z,10.40
2019-02-05T13:45:36.667Z,11.37
2019-02-05T13:48:06.901Z,12.23
2019-02-05T13:50:36.073Z,11.90
2019-02-05T13:53:05.757Z,11.60
2019-02-05T13:55:37.766Z,10.53
2019-02-05T13:58:07.416Z,10.87
2019-02-05T14:00:42.114Z,10.80
2019-02-05T14:03:11.555Z,14.30
2019-02-05T14:05:40.813Z,11.90
2019-02-05T14:08:10.127Z,13.53
2019-02-05T14:10:39.798Z,8.23
2019-02-05T14:13:09.059Z,16.63
2019-02-05T14:15:39.707Z,12.23
2019-02-05T14:18:09.416Z,10.17
2019-02-05T14:20:38.650Z,10.50
2019-02-05T14:23:07.912Z,11.50
2019-02-05T14:25:37.046Z,11.97
2019-02-05T14:28:06.209Z,8.80
2019-02-05T14:30:37.801Z,8.27
2019-02-05T14:33:07.285Z,10.30
2019-02-05T14:35:36.623Z,9.57
2019-02-05T14:38:07.432Z,14.23
2019-02-05T14:40:36.563Z,11.50
2019-02-05T14:43:06.570Z,12.97
2019-02-05T14:45:35.857Z,14.50
2019-02-05T14:48:06.174Z,13.90
2019-02-05T14:50:35.335Z,16.67
2019-02-05T14:53:05.257Z,17.57
2019-02-05T14:55:34.419Z,14.70
2019-02-05T14:58:03.580Z,15.90
2019-02-05T15:00:33.893Z,15.17
2019-02-05T15:03:04.150Z,17.17
2019-02-05T15:05:33.389Z,17.97
2019-02-05T15:08:02.630Z,19.17
2019-02-05T15:10:31.886Z,19.27
2019-02-05T15:13:01.037Z,20.70
2019-02-05T15:15:30.745Z,23.93
2019-02-05T15:18:00.026Z,22.93
2019-02-05T15:20:31.723Z,19.50
2019-02-05T15:23:01.946Z,23.17
2019-02-05T15:25:31.230Z,28.07
2019-02-05T15:28:00.447Z,22.47
2019-02-05T15:30:34.353Z,24.60
2019-02-05T15:33:20.026Z,21.73
2019-02-05T15:35:54.996Z,23.40
2019-02-05T15:38:24.298Z,25.20
2019-02-05T15:40:53.587Z,22.60
2019-02-05T15:43:22.810Z,20.93
2019-02-05T15:45:52.045Z,20.40
2019-02-05T15:48:21.199Z,21.93
2019-02-05T15:50:50.374Z,25.63
2019-02-05T15:53:19.521Z,22.97
2019-02-05T15:55:48.745Z,27.50
2019-02-05T15:58:17.984Z,26.43
2019-02-05T16:00:47.301Z,26.30
2019-02-05T16:03:16.516Z,24.83
2019-02-05T16:05:45.777Z,24.23
2019-02-05T16:08:15.013Z,22.40
2019-02-05T16:10:44.253Z,19.90
2019-02-05T16:13:13.483Z,21.03
2019-02-05T16:15:42.754Z,24.07
2019-02-05T16:18:11.970Z,20.63
2019-02-05T16:20:41.217Z,20.53
2019-02-05T16:23:10.375Z,25.50
2019-02-05T16:25:39.885Z,21.17
2019-02-05T16:28:09.008Z,20.67
2019-02-05T16:30:38.149Z,23.97
2019-02-05T16:33:07.502Z,21.20
2019-02-05T16:35:36.834Z,20.23
2019-02-05T16:38:08.718Z,23.60
2019-02-05T16:40:38.375Z,18.33
2019-02-05T16:43:07.643Z,19.07
2019-02-05T16:45:37.071Z,25.10
2019-02-05T16:48:06.285Z,19.63
2019-02-05T16:50:37.754Z,21.77
2019-02-05T16:53:07.721Z,18.97
2019-02-05T16:55:37.014Z,21.57
2019-02-05T16:58:06.748Z,22.33
2019-02-05T17:00:36.036Z,22.37
2019-02-05T17:03:05.821Z,23.03
2019-02-05T17:05:36.795Z,23.13
2019-02-05T17:08:06.603Z,22.70
2019-02-05T17:10:35.969Z,19.97
2019-02-05T17:13:05.824Z,25.20
2019-02-05T17:15:35.118Z,23.57
2019-02-05T17:18:05.025Z,26.23
2019-02-05T17:20:34.624Z,26.00
2019-02-05T17:23:04.540Z,25.10
2019-02-05T17:25:35.807Z,20.13
2019-02-05T17:28:05.766Z,22.27
2019-02-05T17:30:36.974Z,24.10
2019-02-05T17:33:07.622Z,22.83
2019-02-05T17:35:36.982Z,28.97
2019-02-05T17:38:08.634Z,27.67
2019-02-05T17:40:38.217Z,26.23
2019-02-05T17:43:08.011Z,27.47
2019-02-05T17:45:39.010Z,25.27
2019-02-05T17:48:12.983Z,25.73
2019-02-05T17:50:42.747Z,25.40
2019-02-05T17:53:12.480Z,25.03
2019-02-05T17:55:41.981Z,21.47
2019-02-05T17:58:11.729Z,28.13
2019-02-05T18:01:03.771Z,26.90
2019-02-05T18:03:33.252Z,27.83
2019-02-05T18:06:02.638Z,22.17
2019-02-05T18:08:31.998Z,19.67
2019-02-05T18:11:01.307Z,28.30
2019-02-05T18:13:30.737Z,22.87
2019-02-05T18:16:03.915Z,24.87
2019-02-05T18:18:33.192Z,30.60
2019-02-05T18:21:02.555Z,32.20
2019-02-05T18:23:32.146Z,29.00
2019-02-05T18:26:01.671Z,25.63
2019-02-05T18:28:31.703Z,29.57
2019-02-05T18:31:07.413Z,26.50
2019-02-05T18:33:42.235Z,24.50
2019-02-05T18:36:14.418Z,29.33
2019-02-05T18:38:45.637Z,26.17
2019-02-05T18:41:16.512Z,27.43
2019-02-05T18:43:46.255Z,25.10
2019-02-05T18:46:15.900Z,24.47
2019-02-05T18:48:47.477Z,24.60
2019-02-05T18:51:17.172Z,24.13
2019-02-05T18:53:46.784Z,24.03
2019-02-05T18:56:16.991Z,30.40
2019-02-05T18:58:47.435Z,38.40
2019-02-05T19:01:17.001Z,27.40
2019-02-05T19:03:50.083Z,23.23
2019-02-05T19:06:25.017Z,29.00
2019-02-05T19:08:55.283Z,24.53
2019-02-05T19:11:24.871Z,26.93
2019-02-05T19:13:54.795Z,27.63
2019-02-05T19:16:27.328Z,20.90
2019-02-05T19:18:57.965Z,22.73
2019-02-05T19:21:38.706Z,22.23
2019-02-05T19:24:39.352Z,24.13
2019-02-05T19:27:18.459Z,19.23
2019-02-05T19:29:48.776Z,24.83
2019-02-05T19:32:55.494Z,25.40
2019-02-05T19:35:27.438Z,19.47
2019-02-05T19:38:17.422Z,20.10
2019-02-05T19:40:57.512Z,19.03
2019-02-05T19:43:29.872Z,20.23
2019-02-05T19:46:32.543Z,16.00
2019-02-05T19:49:40.396Z,24.33
2019-02-05T19:52:16.959Z,28.33
2019-02-05T19:54:59.742Z,20.47
2019-02-05T19:57:37.499Z,16.33
2019-02-05T20:00:20.082Z,17.47
2019-02-05T20:02:58.459Z,17.63
2019-02-05T20:05:41.107Z,21.40
2019-02-05T20:08:13.049Z,23.70
2019-02-05T20:10:47.941Z,26.10
2019-02-05T20:13:39.652Z,27.40
2019-02-05T20:16:15.166Z,28.20
2019-02-05T20:19:05.581Z,22.63
2019-02-05T20:21:55.470Z,24.17
2019-02-05T20:24:29.789Z,24.73
2019-02-05T20:27:08.189Z,20.50
2019-02-05T20:29:40.949Z,19.37
2019-02-05T20:32:19.575Z,20.47
2019-02-05T20:34:51.418Z,25.40
2019-02-05T20:37:24.045Z,24.67
2019-02-05T20:39:54.773Z,27.13
2019-02-05T20:42:26.235Z,24.80
2019-02-05T20:44:57.367Z,24.83
2019-02-05T20:47:28.167Z,24.33
2019-02-05T20:50:00.848Z,23.67
2019-02-05T20:52:35.049Z,20.67
2019-02-05T20:55:07.852Z,21.27
2019-02-05T20:57:42.640Z,23.10
2019-02-05T21:00:17.919Z,21.13
2019-02-05T21:02:49.517Z,23.93
2019-02-05T21:05:20.487Z,25.47
2019-02-05T21:07:50.457Z,25.80
2019-02-05T21:10:23.215Z,26.10
2019-02-05T21:12:53.537Z,25.20
2019-02-05T21:15:24.170Z,28.93
2019-02-05T21:17:54.431Z,27.37
2019-02-05T21:20:29.798Z,27.73
2019-02-05T21:22:58.231Z,27.10
2019-02-05T21:25:28.962Z,23.73
2019-02-05T21:27:59.610Z,24.67
2019-02-05T21:30:30.871Z,24.50
2019-02-05T21:33:01.380Z,21.20
2019-02-05T21:35:32.644Z,23.80
2019-02-05T21:38:04.383Z,22.13
2019-02-05T21:40:34.434Z,22.50
2019-02-05T21:43:04.560Z,19.80
2019-02-05T21:45:34.460Z,22.97
2019-02-05T21:48:04.830Z,23.10
2019-02-05T21:50:34.940Z,25.73
2019-02-05T21:53:06.123Z,20.80
2019-02-05T21:55:37.328Z,20.43
2019-02-05T21:58:12.731Z,22.50
2019-02-05T22:00:43.208Z,22.57
2019-02-05T22:03:13.558Z,22.27
2019-02-05T22:05:44.418Z,17.93
2019-02-05T22:08:15.330Z,18.33
2019-02-05T22:10:46.197Z,18.13
2019-02-05T22:13:17.240Z,23.80
2019-02-05T22:15:48.480Z,22.00
2019-02-05T22:18:19.185Z,19.97
2019-02-05T22:20:49.654Z,22.30
2019-02-05T22:23:20.962Z,19.30
2019-02-05T22:25:51.388Z,22.40
2019-02-05T22:28:22.755Z,23.13
2019-02-05T22:30:55.650Z,20.53
2019-02-05T22:33:28.143Z,21.80
2019-02-05T22:35:59.135Z,19.87
2019-02-05T22:38:29.293Z,23.00
2019-02-05T22:40:59.202Z,27.20
2019-02-05T22:43:29.450Z,21.13
2019-02-05T22:45:59.873Z,19.40
2019-02-05T22:48:30.174Z,23.97
2019-02-05T22:51:00.576Z,22.57
2019-02-05T22:53:30.980Z,25.60
2019-02-05T22:56:00.960Z,26.33
2019-02-05T22:58:31.112Z,24.30
2019-02-05T23:01:57.541Z,20.97
2019-02-05T23:05:01.188Z,26.20
2019-02-05T23:07:31.975Z,17.83
2019-02-05T23:10:41.479Z,22.07
2019-02-05T23:13:15.602Z,25.70
2019-02-05T23:15:55.835Z,19.47
2019-02-05T23:18:27.013Z,27.07
2019-02-05T23:21:01.062Z,25.10
2019-02-05T23:23:33.669Z,24.70
2019-02-05T23:26:05.351Z,26.33
2019-02-05T23:28:40.854Z,23.20
2019-02-05T23:31:12.583Z,25.30
2019-02-05T23:33:44.660Z,29.53
2019-02-05T23:36:15.853Z,25.10
2019-02-05T23:38:47.103Z,23.17
2019-02-05T23:41:24.675Z,24.37
2019-02-05T23:43:57.338Z,22.90
2019-02-05T23:46:28.675Z,30.00
2019-02-05T23:49:00.291Z,26.30
2019-02-05T23:51:31.096Z,20.97
2019-02-05T23:54:01.910Z,23.93
2019-02-05T23:56:32.917Z,23.50
2019-02-05T23:59:03.997Z,22.90
